createdAt,value
2018-10-19T00:02:24.983Z,99.90
2018-10-19T00:04:53.320Z,99.90
2018-10-19T00:07:22.673Z,99.90
2018-10-19T00:09:51.033Z,99.90
2018-10-19T00:12:19.404Z,99.90
2018-10-19T00:14:47.728Z,99.90
2018-10-19T00:17:16.141Z,99.90
2018-10-19T00:19:44.388Z,99.90
2018-10-19T00:22:22.549Z,99.90
2018-10-19T00:24:50.843Z,99.90
2018-10-19T00:27:19.204Z,99.90
2018-10-19T00:29:47.508Z,99.90
2018-10-19T00:32:15.851Z,99.90
2018-10-19T00:34:44.204Z,99.90
2018-10-19T00:37:12.520Z,99.90
2018-10-19T00:39:43.972Z,99.90
2018-10-19T00:42:12.298Z,99.90
2018-10-19T00:44:40.623Z,99.90
2018-10-19T00:47:09.029Z,99.90
2018-10-19T00:49:37.370Z,99.90
2018-10-19T00:52:06.083Z,99.90
2018-10-19T00:54:34.541Z,99.90
2018-10-19T00:57:02.865Z,99.90
2018-10-19T00:59:31.390Z,99.90
2018-10-19T01:01:59.734Z,99.90
2018-10-19T01:04:28.034Z,99.90
2018-10-19T01:06:56.319Z,99.90
2018-10-19T01:09:24.590Z,99.90
2018-10-19T01:11:52.880Z,99.90
2018-10-19T01:14:21.261Z,99.90
2018-10-19T01:16:49.565Z,99.90
2018-10-19T01:19:17.926Z,99.90
2018-10-19T01:21:46.250Z,99.90
2018-10-19T01:24:14.600Z,99.90
2018-10-19T01:26:42.958Z,99.90
2018-10-19T01:29:11.312Z,99.90
2018-10-19T01:31:40.522Z,99.90
2018-10-19T01:34:08.885Z,99.90
2018-10-19T01:36:41.946Z,99.90
2018-10-19T01:39:11.182Z,99.90
2018-10-19T01:41:39.650Z,99.90
2018-10-19T01:44:11.985Z,99.90
2018-10-19T01:46:45.679Z,99.90
2018-10-19T01:49:14.026Z,99.90
2018-10-19T01:51:42.570Z,99.90
2018-10-19T01:54:10.910Z,99.90
2018-10-19T01:56:39.252Z,99.90
2018-10-19T01:59:07.689Z,99.90
2018-10-19T02:01:36.046Z,99.90
2018-10-19T02:04:04.442Z,99.90
2018-10-19T02:06:40.847Z,99.90
2018-10-19T02:09:09.216Z,99.90
2018-10-19T02:11:37.433Z,99.90
2018-10-19T02:14:05.822Z,99.90
2018-10-19T02:16:34.239Z,99.90
2018-10-19T02:19:02.568Z,99.90
2018-10-19T02:21:34.626Z,99.90
2018-10-19T02:24:02.977Z,99.90
2018-10-19T02:26:31.246Z,99.90
2018-10-19T02:28:59.547Z,99.90
2018-10-19T02:31:27.892Z,99.90
2018-10-19T02:33:56.175Z,99.90
2018-10-19T02:36:24.476Z,99.90
2018-10-19T02:38:52.764Z,99.90
2018-10-19T02:41:21.091Z,99.90
2018-10-19T02:43:49.390Z,99.90
2018-10-19T02:46:17.706Z,99.90
2018-10-19T02:48:46.050Z,99.90
2018-10-19T02:51:14.423Z,99.90
2018-10-19T02:53:42.640Z,99.90
2018-10-19T02:56:11.001Z,99.90
2018-10-19T02:58:39.286Z,99.90
2018-10-19T03:01:07.573Z,99.90
2018-10-19T03:03:35.859Z,99.90
2018-10-19T03:06:04.199Z,99.90
2018-10-19T03:08:32.524Z,99.90
2018-10-19T03:11:00.942Z,99.90
2018-10-19T03:13:29.218Z,99.90
2018-10-19T03:15:57.587Z,99.90
2018-10-19T03:18:25.901Z,99.90
2018-10-19T03:20:54.393Z,99.90
2018-10-19T03:23:22.685Z,99.90
2018-10-19T03:25:51.011Z,99.90
2018-10-19T03:28:21.362Z,99.90
2018-10-19T03:30:49.758Z,99.90
2018-10-19T03:33:18.103Z,99.90
2018-10-19T03:35:46.310Z,99.90
2018-10-19T03:38:14.594Z,99.90
2018-10-19T03:40:42.885Z,99.90
2018-10-19T03:43:11.236Z,99.90
2018-10-19T03:45:39.541Z,99.90
2018-10-19T03:48:07.831Z,99.90
2018-10-19T03:50:36.150Z,99.90
2018-10-19T03:53:05.059Z,99.90
2018-10-19T03:55:33.462Z,99.90
2018-10-19T03:58:01.713Z,99.90
2018-10-19T04:00:29.998Z,99.90
2018-10-19T04:03:08.780Z,99.90
2018-10-19T04:05:37.056Z,99.90
2018-10-19T04:08:05.513Z,99.90
2018-10-19T04:10:33.822Z,99.90
2018-10-19T04:13:02.089Z,99.90
2018-10-19T04:15:30.407Z,99.90
2018-10-19T04:17:58.741Z,99.90
2018-10-19T04:20:30.920Z,99.90
2018-10-19T04:23:03.573Z,99.90
2018-10-19T04:25:31.837Z,99.90
2018-10-19T04:28:00.111Z,99.90
2018-10-19T04:30:28.436Z,99.90
2018-10-19T04:32:56.762Z,99.90
2018-10-19T04:35:25.139Z,99.90
2018-10-19T04:37:53.470Z,99.90
2018-10-19T04:40:22.992Z,99.90
2018-10-19T04:42:51.388Z,99.90
2018-10-19T04:45:20.048Z,99.90
2018-10-19T04:47:48.371Z,99.90
2018-10-19T04:50:16.693Z,99.90
2018-10-19T04:52:44.992Z,99.90
2018-10-19T04:55:19.373Z,99.90
2018-10-19T04:57:47.782Z,99.90
2018-10-19T05:00:17.886Z,99.90
2018-10-19T05:02:46.337Z,99.90
2018-10-19T05:05:14.649Z,99.90
2018-10-19T05:07:42.868Z,99.90
2018-10-19T05:10:11.405Z,99.90
2018-10-19T05:12:39.783Z,99.90
2018-10-19T05:15:09.214Z,99.90
2018-10-19T05:17:37.489Z,99.90
2018-10-19T05:20:07.600Z,99.90
2018-10-19T05:22:35.905Z,99.90
2018-10-19T05:25:05.097Z,99.90
2018-10-19T05:27:33.419Z,99.90
2018-10-19T05:30:01.710Z,99.90
2018-10-19T05:32:29.950Z,99.90
2018-10-19T05:34:58.338Z,99.90
2018-10-19T05:37:31.657Z,99.90
2018-10-19T05:40:00.488Z,99.90
2018-10-19T05:42:28.765Z,99.90
2018-10-19T05:44:57.071Z,99.90
2018-10-19T05:47:25.408Z,99.90
2018-10-19T05:49:54.082Z,99.90
2018-10-19T05:52:22.536Z,99.90
2018-10-19T05:54:50.891Z,99.90
2018-10-19T05:57:19.183Z,99.90
2018-10-19T05:59:47.518Z,99.90
2018-10-19T06:02:15.979Z,99.90
2018-10-19T06:04:44.286Z,99.90
2018-10-19T06:07:12.585Z,99.90
2018-10-19T06:09:40.932Z,99.90
2018-10-19T06:12:09.258Z,99.90
2018-10-19T06:14:37.621Z,99.90
2018-10-19T06:17:06.194Z,99.90
2018-10-19T06:19:34.423Z,99.90
2018-10-19T06:22:03.901Z,99.90
2018-10-19T06:24:32.243Z,99.90
2018-10-19T06:27:00.511Z,99.90
2018-10-19T06:29:28.827Z,99.90
2018-10-19T06:32:02.043Z,99.90
2018-10-19T06:34:33.289Z,99.90
2018-10-19T06:37:01.640Z,99.90
2018-10-19T06:39:29.896Z,99.90
2018-10-19T06:42:01.901Z,99.90
2018-10-19T06:44:30.247Z,99.90
2018-10-19T06:46:58.610Z,99.90
2018-10-19T06:49:26.787Z,99.90
2018-10-19T06:51:56.048Z,99.90
2018-10-19T06:54:24.316Z,99.90
2018-10-19T06:56:52.606Z,99.90
2018-10-19T06:59:20.991Z,99.90
2018-10-19T07:01:49.272Z,99.90
2018-10-19T07:04:17.591Z,99.90
2018-10-19T07:06:45.917Z,99.90
2018-10-19T07:09:14.222Z,99.90
2018-10-19T07:11:42.876Z,99.90
2018-10-19T07:14:11.273Z,99.90
2018-10-19T07:16:39.494Z,99.90
2018-10-19T07:19:07.865Z,99.90
2018-10-19T07:21:36.204Z,99.90
2018-10-19T07:24:04.683Z,99.90
2018-10-19T07:26:33.002Z,99.90
2018-10-19T07:29:01.379Z,99.90
2018-10-19T07:31:29.696Z,99.90
2018-10-19T07:33:58.010Z,99.90
2018-10-19T07:36:26.389Z,99.90
2018-10-19T07:38:54.629Z,99.90
2018-10-19T07:41:22.952Z,99.90
2018-10-19T07:43:51.290Z,99.90
2018-10-19T07:46:19.578Z,99.90
2018-10-19T07:48:47.859Z,99.90
2018-10-19T07:51:16.174Z,99.90
2018-10-19T07:53:44.474Z,99.90
2018-10-19T07:56:12.922Z,99.90
2018-10-19T07:58:41.202Z,99.90
2018-10-19T08:01:10.665Z,99.90
2018-10-19T08:03:39.910Z,99.90
2018-10-19T08:06:08.326Z,99.90
2018-10-19T08:08:38.675Z,99.90
2018-10-19T08:11:07.055Z,99.90
2018-10-19T08:13:35.351Z,99.90
2018-10-19T08:16:03.634Z,99.90
2018-10-19T08:18:31.966Z,99.90
2018-10-19T08:21:00.402Z,99.90
2018-10-19T08:23:28.719Z,99.90
2018-10-19T08:25:57.044Z,99.90
2018-10-19T08:28:25.301Z,99.90
2018-10-19T08:30:53.647Z,99.90
2018-10-19T08:33:22.005Z,99.90
2018-10-19T08:35:50.484Z,99.90
2018-10-19T08:38:18.809Z,99.90
2018-10-19T08:40:47.181Z,99.90
2018-10-19T08:43:15.592Z,99.90
2018-10-19T08:45:43.923Z,99.90
2018-10-19T08:48:12.265Z,99.90
2018-10-19T08:50:40.602Z,99.90
2018-10-19T08:53:08.996Z,99.90
2018-10-19T08:55:37.336Z,99.90
2018-10-19T08:58:05.794Z,99.90
2018-10-19T09:00:34.062Z,99.90
2018-10-19T09:03:03.112Z,99.90
2018-10-19T09:05:35.783Z,99.90
2018-10-19T09:08:04.168Z,99.90
2018-10-19T09:10:32.502Z,99.90
2018-10-19T09:13:00.835Z,99.90
2018-10-19T09:15:29.193Z,99.90
2018-10-19T09:17:57.523Z,99.90
2018-10-19T09:20:26.870Z,99.90
2018-10-19T09:22:55.226Z,99.80
2018-10-19T09:25:23.516Z,99.70
2018-10-19T09:27:51.892Z,99.50
2018-10-19T09:30:21.119Z,99.40
2018-10-19T09:32:49.426Z,99.20
2018-10-19T09:35:17.828Z,98.90
2018-10-19T09:37:46.027Z,98.40
2018-10-19T09:40:14.381Z,98.10
2018-10-19T09:42:42.612Z,97.90
2018-10-19T09:45:10.938Z,97.90
2018-10-19T09:47:39.350Z,97.70
2018-10-19T09:50:07.652Z,97.50
2018-10-19T09:52:35.932Z,97.10
2018-10-19T09:55:04.321Z,97.30
2018-10-19T09:57:36.489Z,96.90
2018-10-19T10:00:15.335Z,96.30
2018-10-19T10:02:43.791Z,96.20
2018-10-19T10:05:12.203Z,96.20
2018-10-19T10:07:40.582Z,95.70
2018-10-19T10:10:08.842Z,95.50
2018-10-19T10:12:37.207Z,96.00
2018-10-19T10:15:05.778Z,95.80
2018-10-19T10:17:34.078Z,95.80
2018-10-19T10:20:03.728Z,95.70
2018-10-19T10:22:32.017Z,95.70
2018-10-19T10:25:00.515Z,95.30
2018-10-19T10:27:28.621Z,95.50
2018-10-19T10:29:56.914Z,95.20
2018-10-19T10:32:25.245Z,95.20
2018-10-19T10:34:53.515Z,95.10
2018-10-19T10:37:21.790Z,94.90
2018-10-19T10:39:50.195Z,94.70
2018-10-19T10:42:18.511Z,94.50
2018-10-19T10:44:46.949Z,94.30
2018-10-19T10:47:16.176Z,93.90
2018-10-19T10:49:45.285Z,93.90
2018-10-19T10:52:13.653Z,93.90
2018-10-19T10:54:41.814Z,93.90
2018-10-19T10:57:10.065Z,93.60
2018-10-19T10:59:38.368Z,93.40
2018-10-19T11:02:06.725Z,93.10
2018-10-19T11:04:35.022Z,93.20
2018-10-19T11:07:03.412Z,93.10
2018-10-19T11:09:31.675Z,92.70
2018-10-19T11:11:59.967Z,92.50
2018-10-19T11:14:28.264Z,92.20
2018-10-19T11:16:56.575Z,91.90
2018-10-19T11:19:24.879Z,91.80
2018-10-19T11:21:53.132Z,91.70
2018-10-19T11:24:21.459Z,91.50
2018-10-19T11:26:49.885Z,91.70
2018-10-19T11:29:18.214Z,91.80
2018-10-19T11:31:46.602Z,91.60
2018-10-19T11:34:14.960Z,91.80
2018-10-19T11:36:43.250Z,91.80
2018-10-19T11:39:11.557Z,91.80
2018-10-19T11:41:40.216Z,91.50
2018-10-19T11:44:08.604Z,91.70
2018-10-19T11:46:36.944Z,91.80
2018-10-19T11:49:05.311Z,91.90
2018-10-19T11:51:33.718Z,91.80
2018-10-19T11:54:02.038Z,91.40
2018-10-19T11:56:30.338Z,91.30
2018-10-19T11:58:58.672Z,91.30
2018-10-19T12:01:26.992Z,91.30
2018-10-19T12:03:55.275Z,91.20
2018-10-19T12:06:23.616Z,91.00
2018-10-19T12:08:51.951Z,91.00
2018-10-19T12:11:20.288Z,91.00
2018-10-19T12:13:48.595Z,91.00
2018-10-19T12:16:16.976Z,90.90
2018-10-19T12:18:45.175Z,90.70
2018-10-19T12:21:13.551Z,90.50
2018-10-19T12:23:41.776Z,90.80
2018-10-19T12:26:10.272Z,90.50
2018-10-19T12:28:38.457Z,90.70
2018-10-19T12:31:06.842Z,90.80
2018-10-19T12:33:35.073Z,90.60
2018-10-19T12:36:03.458Z,90.40
2018-10-19T12:38:31.763Z,90.40
2018-10-19T12:41:00.131Z,90.20
2018-10-19T12:43:28.382Z,90.20
2018-10-19T12:46:41.027Z,90.10
2018-10-19T12:49:09.932Z,90.00
2018-10-19T12:51:38.537Z,89.10
2018-10-19T12:54:07.052Z,88.40
2018-10-19T12:56:35.342Z,88.70
2018-10-19T12:59:03.789Z,88.80
2018-10-19T13:01:32.573Z,88.90
2018-10-19T13:04:01.459Z,88.60
2018-10-19T13:06:29.770Z,88.10
2018-10-19T13:08:58.095Z,87.20
2018-10-19T13:11:26.828Z,87.10
2018-10-19T13:13:55.113Z,87.20
2018-10-19T13:16:23.654Z,86.80
2018-10-19T13:18:52.108Z,86.20
2018-10-19T13:21:20.546Z,86.00
2018-10-19T13:23:48.908Z,85.70
2018-10-19T13:26:17.277Z,86.00
2018-10-19T13:28:45.580Z,85.10
2018-10-19T13:31:13.886Z,85.00
2018-10-19T13:33:42.344Z,84.90
2018-10-19T13:36:10.878Z,84.90
2018-10-19T13:38:39.006Z,85.60
2018-10-19T13:41:07.363Z,85.40
2018-10-19T13:43:35.622Z,86.10
2018-10-19T13:46:04.229Z,85.50
2018-10-19T13:48:32.541Z,86.00
2018-10-19T13:51:00.980Z,86.20
2018-10-19T13:53:29.239Z,84.90
2018-10-19T13:55:57.700Z,84.40
2018-10-19T13:58:26.080Z,83.70
2018-10-19T14:00:54.342Z,83.90
2018-10-19T14:03:22.634Z,83.20
2018-10-19T14:05:50.926Z,83.80
2018-10-19T14:08:19.240Z,84.60
2018-10-19T14:10:47.593Z,84.40
2018-10-19T14:13:15.900Z,84.90
2018-10-19T14:15:44.245Z,85.70
2018-10-19T14:18:12.539Z,86.30
2018-10-19T14:20:40.891Z,86.20
2018-10-19T14:23:09.276Z,87.10
2018-10-19T14:25:37.453Z,86.60
2018-10-19T14:28:06.069Z,86.20
2018-10-19T14:30:34.416Z,85.70
2018-10-19T14:33:02.818Z,84.80
2018-10-19T14:35:31.060Z,84.80
2018-10-19T14:37:59.375Z,83.70
2018-10-19T14:40:27.721Z,84.00
2018-10-19T14:42:56.064Z,84.20
2018-10-19T14:45:24.374Z,83.80
2018-10-19T14:47:52.710Z,83.70
2018-10-19T14:50:20.967Z,84.00
2018-10-19T14:52:49.318Z,84.70
2018-10-19T14:55:19.413Z,83.90
2018-10-19T14:57:47.703Z,83.50
2018-10-19T15:00:17.687Z,83.80
2018-10-19T15:02:49.296Z,84.40
2018-10-19T15:05:18.693Z,85.40
2018-10-19T15:07:47.057Z,86.70
2018-10-19T15:10:17.210Z,86.70
2018-10-19T15:12:45.552Z,87.00
2018-10-19T15:15:15.769Z,87.70
2018-10-19T15:17:44.131Z,88.30
2018-10-19T15:20:12.911Z,88.80
2018-10-19T15:22:41.238Z,89.20
2018-10-19T15:25:09.998Z,89.40
2018-10-19T15:27:45.717Z,89.40
2018-10-19T15:30:15.779Z,89.50
2018-10-19T15:32:44.126Z,90.10
2018-10-19T15:35:13.494Z,89.90
2018-10-19T15:37:42.028Z,90.10
2018-10-19T15:40:11.144Z,90.00
2018-10-19T15:42:39.910Z,90.00
2018-10-19T15:45:10.059Z,90.20
2018-10-19T15:47:38.342Z,90.30
2018-10-19T15:50:07.566Z,90.40
2018-10-19T15:52:36.039Z,90.50
2018-10-19T15:55:04.662Z,90.70
2018-10-19T15:57:32.931Z,90.90
2018-10-19T16:00:01.301Z,91.20
2018-10-19T16:02:29.582Z,91.30
2018-10-19T16:04:57.922Z,91.60
2018-10-19T16:07:26.253Z,92.00
2018-10-19T16:09:54.601Z,92.10
2018-10-19T16:12:22.895Z,92.60
2018-10-19T16:14:51.336Z,92.60
2018-10-19T16:17:19.725Z,92.80
2018-10-19T16:19:51.592Z,93.00
2018-10-19T16:22:19.928Z,93.30
2018-10-19T16:24:50.292Z,93.90
2018-10-19T16:27:22.238Z,94.30
2018-10-19T16:29:50.534Z,94.60
2018-10-19T16:32:18.815Z,95.10
2018-10-19T16:34:47.160Z,95.60
2018-10-19T16:37:15.467Z,95.80
2018-10-19T16:39:43.849Z,96.10
2018-10-19T16:42:16.136Z,96.20
2018-10-19T16:44:44.459Z,96.30
2018-10-19T16:47:12.788Z,96.50
2018-10-19T16:49:42.327Z,96.80
2018-10-19T16:52:13.896Z,97.00
2018-10-19T16:54:45.800Z,97.30
2018-10-19T16:57:14.152Z,97.90
2018-10-19T16:59:44.492Z,98.30
2018-10-19T17:02:12.830Z,98.60
2018-10-19T17:04:41.352Z,99.00
2018-10-19T17:07:09.631Z,99.30
2018-10-19T17:09:41.399Z,99.70
2018-10-19T17:12:10.090Z,99.90
2018-10-19T17:14:38.300Z,99.90
2018-10-19T17:17:06.563Z,99.90
2018-10-19T17:19:34.891Z,99.90
2018-10-19T17:22:03.314Z,99.90
2018-10-19T17:24:31.608Z,99.90
2018-10-19T17:27:00.083Z,99.90
2018-10-19T17:29:28.375Z,99.90
2018-10-19T17:31:56.648Z,99.90
2018-10-19T17:34:24.946Z,99.90
2018-10-19T17:36:53.282Z,99.90
2018-10-19T17:39:21.665Z,99.90
2018-10-19T17:41:50.002Z,99.90
2018-10-19T17:44:18.397Z,99.90
2018-10-19T17:46:46.671Z,99.90
2018-10-19T17:49:15.113Z,99.90
2018-10-19T17:51:43.343Z,99.90
2018-10-19T17:54:13.774Z,99.90
2018-10-19T17:56:42.022Z,99.90
2018-10-19T17:59:13.852Z,99.90
2018-10-19T18:01:42.116Z,99.90
2018-10-19T18:04:10.413Z,99.90
2018-10-19T18:06:38.746Z,99.90
2018-10-19T18:09:09.120Z,99.90
2018-10-19T18:11:37.560Z,99.90
2018-10-19T18:14:05.936Z,99.90
2018-10-19T18:16:34.374Z,99.90
2018-10-19T18:19:02.693Z,99.90
2018-10-19T18:21:31.149Z,99.90
2018-10-19T18:23:59.353Z,99.90
2018-10-19T18:26:27.702Z,99.90
2018-10-19T18:28:56.050Z,99.90
2018-10-19T18:31:24.394Z,99.90
2018-10-19T18:33:52.728Z,99.90
2018-10-19T18:36:21.025Z,99.90
2018-10-19T18:38:49.304Z,99.90
2018-10-19T18:41:17.632Z,99.90
2018-10-19T18:43:45.953Z,99.90
2018-10-19T18:46:14.259Z,99.90
2018-10-19T18:48:42.502Z,99.90
2018-10-19T18:51:10.845Z,99.90
2018-10-19T18:53:39.162Z,99.90
2018-10-19T18:56:08.599Z,99.90
2018-10-19T18:58:36.924Z,99.90
2018-10-19T19:01:05.274Z,99.90
2018-10-19T19:03:33.631Z,99.90
2018-10-19T19:06:01.948Z,99.90
2018-10-19T19:08:30.238Z,99.90
2018-10-19T19:10:58.596Z,99.90
2018-10-19T19:13:29.252Z,99.90
2018-10-19T19:15:57.962Z,99.90
2018-10-19T19:18:26.308Z,99.90
2018-10-19T19:20:54.679Z,99.90
2018-10-19T19:23:23.022Z,99.90
2018-10-19T19:25:56.789Z,99.90
2018-10-19T19:28:25.081Z,99.90
2018-10-19T19:30:53.411Z,99.90
2018-10-19T19:33:27.021Z,99.90
2018-10-19T19:35:55.298Z,99.90
2018-10-19T19:38:23.662Z,99.90
2018-10-19T19:40:57.393Z,99.90
2018-10-19T19:43:25.673Z,99.90
2018-10-19T19:45:53.972Z,99.90
2018-10-19T19:48:27.616Z,99.90
2018-10-19T19:50:55.936Z,99.90
2018-10-19T19:53:24.210Z,99.90
2018-10-19T19:55:52.500Z,99.90
2018-10-19T19:58:20.777Z,99.90
2018-10-19T20:00:49.110Z,99.90
2018-10-19T20:03:17.473Z,99.90
2018-10-19T20:05:45.886Z,99.90
2018-10-19T20:08:14.265Z,99.90
2018-10-19T20:10:42.544Z,99.90
2018-10-19T20:13:10.910Z,99.90
2018-10-19T20:15:42.815Z,99.90
2018-10-19T20:18:11.188Z,99.90
2018-10-19T20:20:39.499Z,99.90
2018-10-19T20:23:07.906Z,99.90
2018-10-19T20:25:36.269Z,99.90
2018-10-19T20:28:04.895Z,99.90
2018-10-19T20:30:33.213Z,99.90
2018-10-19T20:33:04.961Z,99.90
2018-10-19T20:35:33.252Z,99.90
2018-10-19T20:38:01.679Z,99.90
2018-10-19T20:40:29.870Z,99.90
2018-10-19T20:42:58.205Z,99.90
2018-10-19T20:45:27.575Z,99.90
2018-10-19T20:47:55.932Z,99.90
2018-10-19T20:50:24.226Z,99.90
2018-10-19T20:52:52.578Z,99.90
2018-10-19T20:55:20.846Z,99.90
2018-10-19T20:57:49.184Z,99.90
2018-10-19T21:00:18.554Z,99.90
2018-10-19T21:02:46.873Z,99.90
2018-10-19T21:05:15.230Z,99.90
2018-10-19T21:07:43.555Z,99.90
2018-10-19T21:10:13.220Z,99.90
2018-10-19T21:12:41.548Z,99.90
2018-10-19T21:15:11.496Z,99.90
2018-10-19T21:17:40.203Z,99.90
2018-10-19T21:20:09.481Z,99.90
2018-10-19T21:22:38.100Z,99.90
2018-10-19T21:25:07.587Z,99.90
2018-10-19T21:27:36.186Z,99.90
2018-10-19T21:30:04.946Z,99.90
2018-10-19T21:32:33.203Z,99.90
2018-10-19T21:35:01.524Z,99.90
2018-10-19T21:37:29.808Z,99.90
2018-10-19T21:39:58.147Z,99.90
2018-10-19T21:42:26.415Z,99.90
2018-10-19T21:44:54.882Z,99.90
2018-10-19T21:47:23.125Z,99.90
2018-10-19T21:49:51.429Z,99.90
2018-10-19T21:52:19.974Z,99.90
2018-10-19T21:54:48.306Z,99.90
2018-10-19T21:57:16.654Z,99.90
2018-10-19T21:59:44.973Z,99.90
2018-10-19T22:02:13.364Z,99.90
2018-10-19T22:04:41.625Z,99.90
2018-10-19T22:07:09.963Z,99.90
2018-10-19T22:09:39.299Z,99.90
2018-10-19T22:12:07.597Z,99.90
2018-10-19T22:14:35.886Z,99.90
2018-10-19T22:17:04.533Z,99.90
2018-10-19T22:19:32.798Z,99.90
2018-10-19T22:22:01.093Z,99.90
2018-10-19T22:24:29.394Z,99.90
2018-10-19T22:26:57.677Z,99.90
2018-10-19T22:29:25.978Z,99.90
2018-10-19T22:31:54.282Z,99.90
2018-10-19T22:34:22.682Z,99.90
2018-10-19T22:36:51.025Z,99.90
2018-10-19T22:39:19.358Z,99.90
2018-10-19T22:41:47.624Z,99.90
2018-10-19T22:44:15.955Z,99.90
2018-10-19T22:46:44.260Z,99.90
2018-10-19T22:49:12.588Z,99.90
2018-10-19T22:51:40.890Z,99.90
2018-10-19T22:54:09.192Z,99.90
2018-10-19T22:56:37.539Z,99.90
2018-10-19T22:59:06.018Z,99.90
2018-10-19T23:01:34.330Z,99.90
2018-10-19T23:04:02.662Z,99.90
2018-10-19T23:06:30.950Z,99.90
2018-10-19T23:08:59.218Z,99.90
2018-10-19T23:11:27.513Z,99.90
2018-10-19T23:13:55.861Z,99.90
2018-10-19T23:16:24.164Z,99.90
2018-10-19T23:18:52.515Z,99.90
2018-10-19T23:21:20.869Z,99.90
2018-10-19T23:23:49.178Z,99.90
2018-10-19T23:26:17.533Z,99.90
2018-10-19T23:28:45.841Z,99.90
2018-10-19T23:31:14.272Z,99.90
2018-10-19T23:33:42.520Z,99.90
2018-10-19T23:36:10.795Z,99.90
2018-10-19T23:38:39.114Z,99.90
2018-10-19T23:41:07.564Z,99.90
2018-10-19T23:43:35.824Z,99.90
2018-10-19T23:46:04.085Z,99.90
2018-10-19T23:48:32.420Z,99.90
2018-10-19T23:51:01.078Z,99.90
2018-10-19T23:53:29.384Z,99.90
2018-10-19T23:55:57.710Z,99.90
2018-10-19T23:58:25.947Z,99.90
